Time;durP1;ratioP1;P1;durP2;ratioP2;P2;SDS_P1;SDS_P2;PMS_P1;PMS_P2;Temp;Humidity;BMP_temperature;BMP_pressure;BME280_temperature;BME280_humidity;BME280_pressure;Samples;Min_cycle;Max_cycle;Signal;HPM_P1;HPM_P2
2023/09/10 00:00:09;;;;;;;;;;;23.10;68.80;;;;;;5034433;28;20399;-79
2023/09/10 00:02:36;;;;;;;;;;;23.10;69.10;;;;;;5033601;28;19958;-79
2023/09/10 00:05:04;;;;;;;;;;;23.10;69.20;;;;;;5034882;28;20447;-78
2023/09/10 00:07:31;;;;;;;;;;;23.00;69.40;;;;;;5034903;28;19998;-80
2023/09/10 00:09:57;;;;;;;;;;;23.00;69.40;;;;;;5039603;28;19955;-79
2023/09/10 00:12:24;;;;;;;;;;;23.00;69.60;;;;;;5033093;28;19956;-79
2023/09/10 00:14:52;;;;;;;;;;;23.00;69.80;;;;;;5032733;28;20116;-78
2023/09/10 00:17:19;;;;;;;;;;;22.90;69.90;;;;;;5029664;28;19955;-79
2023/09/10 00:19:45;;;;;;;;;;;22.90;70.00;;;;;;5035649;28;19939;-79
2023/09/10 00:22:12;;;;;;;;;;;22.90;70.00;;;;;;5022053;28;19990;-79
2023/09/10 00:24:39;;;;;;;;;;;22.80;70.80;;;;;;5034505;28;19935;-79
2023/09/10 00:27:05;;;;;;;;;;;22.80;70.10;;;;;;5022737;28;19974;-78
2023/09/10 00:29:32;;;;;;;;;;;22.80;70.30;;;;;;5032772;28;19936;-79
2023/09/10 00:32:00;;;;;;;;;;;22.80;70.40;;;;;;5032864;28;19959;-80
2023/09/10 00:34:30;;;;;;;;;;;22.70;70.50;;;;;;5017415;28;19955;-80
2023/09/10 00:36:56;;;;;;;;;;;22.70;70.60;;;;;;5035392;28;20030;-79
2023/09/10 00:39:23;;;;;;;;;;;22.70;70.90;;;;;;5035179;28;20347;-79
2023/09/10 00:41:53;;;;;;;;;;;22.60;70.90;;;;;;5045944;28;19962;-80
2023/09/10 00:44:20;;;;;;;;;;;22.60;70.90;;;;;;5034185;28;19935;-79
2023/09/10 00:46:47;;;;;;;;;;;22.60;71.10;;;;;;5056795;28;20085;-79
2023/09/10 00:49:17;;;;;;;;;;;22.60;71.30;;;;;;5051437;28;19962;-79
2023/09/10 00:51:44;;;;;;;;;;;22.50;71.60;;;;;;5053660;28;19954;-79
2023/09/10 00:54:11;;;;;;;;;;;22.50;71.70;;;;;;5051774;28;19959;-79
2023/09/10 00:56:38;;;;;;;;;;;22.50;71.60;;;;;;5058944;28;20385;-79
2023/09/10 00:59:05;;;;;;;;;;;22.50;71.70;;;;;;5054109;28;19970;-79
2023/09/10 01:01:31;;;;;;;;;;;22.40;71.60;;;;;;5039200;28;19978;-79
2023/09/10 01:03:58;;;;;;;;;;;22.40;71.70;;;;;;5058001;28;19946;-79
2023/09/10 01:06:26;;;;;;;;;;;22.40;71.80;;;;;;5033287;28;20005;-79
2023/09/10 01:08:53;;;;;;;;;;;22.30;71.70;;;;;;5042345;28;19974;-80
2023/09/10 01:11:24;;;;;;;;;;;22.30;71.80;;;;;;5059053;28;19935;-79
2023/09/10 01:13:53;;;;;;;;;;;22.30;72.00;;;;;;5034097;28;19986;-79
2023/09/10 01:16:24;;;;;;;;;;;22.30;72.00;;;;;;5036790;28;19993;-79
2023/09/10 01:18:54;;;;;;;;;;;22.20;72.00;;;;;;5055383;28;19935;-79
2023/09/10 01:21:31;;;;;;;;;;;22.20;72.20;;;;;;5063795;28;19935;-80
2023/09/10 01:24:09;;;;;;;;;;;22.20;72.30;;;;;;5037827;28;19942;-78
2023/09/10 01:26:38;;;;;;;;;;;22.20;72.50;;;;;;5048022;28;19963;-79
2023/09/10 01:29:05;;;;;;;;;;;22.10;72.60;;;;;;5036677;28;19951;-79
2023/09/10 01:31:33;;;;;;;;;;;22.10;72.70;;;;;;5053651;28;19954;-78
2023/09/10 01:34:02;;;;;;;;;;;22.10;72.80;;;;;;5053343;28;19955;-80
2023/09/10 01:36:31;;;;;;;;;;;22.00;72.70;;;;;;5053614;28;20368;-79
2023/09/10 01:39:01;;;;;;;;;;;22.00;72.70;;;;;;5037089;28;19955;-79
2023/09/10 01:41:29;;;;;;;;;;;22.00;72.70;;;;;;5048504;28;19946;-79
2023/09/10 01:43:59;;;;;;;;;;;22.00;72.70;;;;;;5035182;28;19959;-79
2023/09/10 01:46:27;;;;;;;;;;;21.90;72.70;;;;;;5028835;28;19942;-79
2023/09/10 01:48:54;;;;;;;;;;;22.00;72.90;;;;;;5013198;28;19925;-80
2023/09/10 01:51:21;;;;;;;;;;;21.90;72.90;;;;;;5028904;28;19943;-80
2023/09/10 01:53:47;;;;;;;;;;;21.90;72.90;;;;;;5015198;28;20235;-80
2023/09/10 01:56:14;;;;;;;;;;;21.80;73.10;;;;;;5032155;28;19966;-79
2023/09/10 01:58:41;;;;;;;;;;;21.80;73.90;;;;;;5031795;28;19955;-78
2023/09/10 02:01:09;;;;;;;;;;;21.80;73.30;;;;;;5033637;28;19959;-79
2023/09/10 02:03:35;;;;;;;;;;;21.80;73.50;;;;;;5028200;28;19963;-79
2023/09/10 02:06:03;;;;;;;;;;;21.70;73.40;;;;;;5033512;28;19944;-79
2023/09/10 02:08:30;;;;;;;;;;;21.70;73.50;;;;;;5033983;28;19935;-78
2023/09/10 02:10:56;;;;;;;;;;;21.70;73.70;;;;;;5029745;28;19936;-79
2023/09/10 02:13:23;;;;;;;;;;;21.60;73.70;;;;;;5032180;28;19966;-79
2023/09/10 02:15:50;;;;;;;;;;;21.70;73.70;;;;;;5015949;28;19951;-79
2023/09/10 02:18:18;;;;;;;;;;;21.60;73.70;;;;;;5017551;28;19982;-80
2023/09/10 02:20:45;;;;;;;;;;;21.60;73.70;;;;;;5009680;28;19943;-79
2023/09/10 02:23:11;;;;;;;;;;;21.60;73.80;;;;;;5031162;28;19962;-79
2023/09/10 02:25:38;;;;;;;;;;;21.60;73.80;;;;;;5029642;28;20015;-79
2023/09/10 02:28:05;;;;;;;;;;;21.50;73.80;;;;;;5035574;28;20354;-79
2023/09/10 02:30:32;;;;;;;;;;;21.50;73.80;;;;;;5035703;28;19930;-80
2023/09/10 02:32:58;;;;;;;;;;;21.50;73.90;;;;;;5041676;28;20145;-79
2023/09/10 02:35:26;;;;;;;;;;;21.50;74.00;;;;;;5039792;28;19929;-79
2023/09/10 02:37:54;;;;;;;;;;;21.40;74.00;;;;;;5038570;28;19944;-80
2023/09/10 02:40:20;;;;;;;;;;;21.40;74.10;;;;;;5036725;28;19925;-79
2023/09/10 02:42:47;;;;;;;;;;;21.40;74.20;;;;;;5036459;28;19970;-79
2023/09/10 02:45:14;;;;;;;;;;;21.40;74.30;;;;;;5019763;28;20386;-81
2023/09/10 02:47:40;;;;;;;;;;;21.30;74.40;;;;;;5034954;28;19942;-79
2023/09/10 02:50:07;;;;;;;;;;;21.30;74.40;;;;;;5032875;28;20655;-79
2023/09/10 02:52:36;;;;;;;;;;;21.30;74.40;;;;;;5023056;28;19955;-78
2023/09/10 02:55:03;;;;;;;;;;;21.30;74.40;;;;;;5036413;28;19951;-80
2023/09/10 02:57:29;;;;;;;;;;;21.30;74.50;;;;;;5037489;28;19936;-79
2023/09/10 02:59:56;;;;;;;;;;;21.30;74.50;;;;;;5015559;28;19932;-78
2023/09/10 03:02:23;;;;;;;;;;;21.20;74.50;;;;;;5031200;28;19930;-78
2023/09/10 03:04:50;;;;;;;;;;;21.20;74.50;;;;;;5015716;28;20351;-79
2023/09/10 03:07:17;;;;;;;;;;;21.20;74.50;;;;;;5018816;28;19929;-79
2023/09/10 03:09:45;;;;;;;;;;;21.20;74.50;;;;;;5035768;28;19927;-79
2023/09/10 03:12:24;;;;;;;;;;;21.10;74.50;;;;;;5029943;28;19966;-80
2023/09/10 03:14:51;;;;;;;;;;;21.10;74.50;;;;;;5032248;28;19931;-78
2023/09/10 03:17:18;;;;;;;;;;;21.10;74.60;;;;;;5033290;28;19929;-79
2023/09/10 03:19:44;;;;;;;;;;;21.10;74.60;;;;;;5033486;28;19931;-80
2023/09/10 03:22:11;;;;;;;;;;;21.10;74.60;;;;;;5032735;28;19963;-79
2023/09/10 03:24:38;;;;;;;;;;;21.10;74.70;;;;;;5036654;28;20322;-79
2023/09/10 03:27:06;;;;;;;;;;;21.10;74.70;;;;;;5015979;28;19947;-79
2023/09/10 03:29:34;;;;;;;;;;;21.00;75.50;;;;;;5017677;28;19925;-78
2023/09/10 03:32:02;;;;;;;;;;;21.00;74.80;;;;;;5022438;28;19966;-79
2023/09/10 03:34:29;;;;;;;;;;;20.90;74.80;;;;;;5040114;28;19959;-80
2023/09/10 03:36:55;;;;;;;;;;;20.90;74.90;;;;;;5041218;28;20288;-78
2023/09/10 03:39:22;;;;;;;;;;;20.90;74.90;;;;;;5038457;28;19959;-79
2023/09/10 03:41:48;;;;;;;;;;;20.90;74.90;;;;;;5036429;28;19966;-79
2023/09/10 03:44:17;;;;;;;;;;;20.90;74.90;;;;;;5039155;28;19944;-80
2023/09/10 03:46:43;;;;;;;;;;;20.90;75.00;;;;;;5017992;28;20330;-79
2023/09/10 03:49:10;;;;;;;;;;;20.80;75.00;;;;;;5040490;28;19950;-78
2023/09/10 03:51:36;;;;;;;;;;;20.80;75.10;;;;;;5014508;28;19925;-78
2023/09/10 03:54:03;;;;;;;;;;;20.80;75.10;;;;;;5035112;28;20413;-78
2023/09/10 03:56:30;;;;;;;;;;;20.80;75.20;;;;;;5034982;28;19954;-78
2023/09/10 03:58:56;;;;;;;;;;;20.70;75.30;;;;;;5033818;28;19942;-78
2023/09/10 04:01:24;;;;;;;;;;;20.70;75.50;;;;;;5033911;28;19937;-78
2023/09/10 04:03:51;;;;;;;;;;;20.70;75.50;;;;;;5017643;28;19987;-79
2023/09/10 04:06:18;;;;;;;;;;;20.70;75.60;;;;;;5033285;28;19961;-78
2023/09/10 04:08:44;;;;;;;;;;;20.70;75.70;;;;;;5032705;28;19933;-79
2023/09/10 04:11:11;;;;;;;;;;;20.60;75.80;;;;;;5014192;28;19946;-79
2023/09/10 04:13:38;;;;;;;;;;;20.60;75.80;;;;;;5017459;28;19958;-80
2023/09/10 04:16:06;;;;;;;;;;;20.60;75.80;;;;;;5016723;28;19925;-78
2023/09/10 04:18:34;;;;;;;;;;;20.60;75.70;;;;;;5033886;28;20440;-79
2023/09/10 04:21:03;;;;;;;;;;;20.60;75.80;;;;;;5028086;28;19987;-79
2023/09/10 04:23:30;;;;;;;;;;;20.50;75.80;;;;;;5029187;28;20348;-79
2023/09/10 04:25:57;;;;;;;;;;;20.50;75.80;;;;;;5001821;28;19966;-79
2023/09/10 04:28:23;;;;;;;;;;;20.50;75.80;;;;;;5033948;28;19932;-79
2023/09/10 04:30:50;;;;;;;;;;;20.50;75.80;;;;;;5028663;28;20010;-79
2023/09/10 04:33:17;;;;;;;;;;;20.50;75.80;;;;;;5031237;28;20565;-78
2023/09/10 04:35:50;;;;;;;;;;;20.40;75.70;;;;;;5030939;28;19947;-79
2023/09/10 04:38:16;;;;;;;;;;;20.50;75.90;;;;;;5033962;28;19946;-78
2023/09/10 04:40:43;;;;;;;;;;;20.40;75.80;;;;;;5035827;28;19939;-79
2023/09/10 04:43:09;;;;;;;;;;;20.40;75.80;;;;;;5034759;28;19962;-79
2023/09/10 04:45:36;;;;;;;;;;;20.40;76.00;;;;;;5019717;28;19955;-79
2023/09/10 04:48:04;;;;;;;;;;;20.30;76.00;;;;;;5036157;28;19939;-78
2023/09/10 04:50:30;;;;;;;;;;;20.30;76.10;;;;;;5013717;28;20401;-79
2023/09/10 04:52:59;;;;;;;;;;;20.30;76.10;;;;;;5029181;28;20130;-79
2023/09/10 04:55:25;;;;;;;;;;;20.30;76.20;;;;;;5019401;28;20123;-78
2023/09/10 04:57:52;;;;;;;;;;;20.30;76.30;;;;;;5033176;28;25073;-82
2023/09/10 05:00:19;;;;;;;;;;;20.30;76.30;;;;;;5030399;28;20000;-78
2023/09/10 05:02:46;;;;;;;;;;;20.30;76.40;;;;;;5014986;28;20173;-78
2023/09/10 05:05:12;;;;;;;;;;;20.20;76.40;;;;;;5026550;28;20001;-79
2023/09/10 05:07:41;;;;;;;;;;;20.20;76.40;;;;;;5016558;28;20563;-79
2023/09/10 05:10:10;;;;;;;;;;;20.20;76.40;;;;;;5016325;28;25112;-79
2023/09/10 05:12:37;;;;;;;;;;;20.20;76.50;;;;;;5032180;28;20012;-79
2023/09/10 05:15:04;;;;;;;;;;;20.20;76.50;;;;;;5035596;28;25053;-79
2023/09/10 05:17:31;;;;;;;;;;;20.10;76.50;;;;;;5033106;28;20498;-77
2023/09/10 05:19:57;;;;;;;;;;;20.10;76.50;;;;;;5039489;28;20158;-78
2023/09/10 05:22:24;;;;;;;;;;;20.10;77.30;;;;;;5002776;28;20068;-78
2023/09/10 05:24:51;;;;;;;;;;;20.10;76.60;;;;;;5037181;28;25162;-78
2023/09/10 05:27:19;;;;;;;;;;;20.10;76.60;;;;;;5019159;28;19988;-79
2023/09/10 05:29:46;;;;;;;;;;;20.00;76.60;;;;;;5032278;28;25084;-80
2023/09/10 05:32:12;;;;;;;;;;;20.00;76.70;;;;;;5018987;28;19963;-79
2023/09/10 05:34:39;;;;;;;;;;;20.00;76.70;;;;;;5019914;28;19971;-78
2023/09/10 05:37:05;;;;;;;;;;;20.00;76.70;;;;;;5035849;28;19948;-80
2023/09/10 05:39:32;;;;;;;;;;;20.00;76.80;;;;;;5003204;28;19943;-80
2023/09/10 05:41:59;;;;;;;;;;;20.00;76.90;;;;;;5035694;28;19966;-82
2023/09/10 05:44:27;;;;;;;;;;;19.90;76.80;;;;;;5058907;28;19947;-79
2023/09/10 05:46:54;;;;;;;;;;;19.90;76.80;;;;;;5057454;28;20330;-77
2023/09/10 05:49:20;;;;;;;;;;;19.90;76.90;;;;;;5054124;28;20957;-78
2023/09/10 05:51:47;;;;;;;;;;;19.90;76.90;;;;;;5054469;28;20119;-79
2023/09/10 05:54:13;;;;;;;;;;;19.90;76.90;;;;;;5053618;28;20346;-78
2023/09/10 05:56:40;;;;;;;;;;;19.90;77.00;;;;;;5052704;28;25066;-78
2023/09/10 05:59:07;;;;;;;;;;;19.90;77.00;;;;;;5049917;28;20002;-79
2023/09/10 06:01:35;;;;;;;;;;;19.80;77.00;;;;;;5053453;28;20184;-78
2023/09/10 06:04:01;;;;;;;;;;;19.80;77.00;;;;;;5055033;28;19996;-78
2023/09/10 06:06:28;;;;;;;;;;;19.80;77.10;;;;;;5058102;28;25075;-78
2023/09/10 06:08:54;;;;;;;;;;;19.80;77.20;;;;;;5061558;28;19986;-78
2023/09/10 06:11:21;;;;;;;;;;;19.80;77.30;;;;;;5056031;28;25127;-79
2023/09/10 06:13:48;;;;;;;;;;;19.80;77.40;;;;;;5052906;28;20014;-78
2023/09/10 06:16:14;;;;;;;;;;;19.80;77.40;;;;;;5053363;28;20983;-78
2023/09/10 06:18:43;;;;;;;;;;;19.80;77.40;;;;;;5058093;28;20156;-79
2023/09/10 06:21:10;;;;;;;;;;;19.80;77.60;;;;;;5057404;28;20152;-79
2023/09/10 06:23:36;;;;;;;;;;;19.70;77.50;;;;;;5055493;28;20041;-78
2023/09/10 06:26:03;;;;;;;;;;;19.80;77.60;;;;;;5058231;28;20183;-78
2023/09/10 06:28:29;;;;;;;;;;;19.70;77.60;;;;;;5056733;28;19994;-78
2023/09/10 06:30:56;;;;;;;;;;;19.70;77.70;;;;;;5053704;28;25063;-78
2023/09/10 06:33:23;;;;;;;;;;;19.70;77.90;;;;;;5057342;28;20000;-78
2023/09/10 06:35:51;;;;;;;;;;;19.60;77.90;;;;;;5057351;28;20157;-77
2023/09/10 06:38:17;;;;;;;;;;;19.70;78.10;;;;;;5057966;28;25063;-79
2023/09/10 06:40:44;;;;;;;;;;;19.60;78.10;;;;;;4985905;28;1844458;-78
2023/09/10 06:43:11;;;;;;;;;;;19.60;78.20;;;;;;5042280;28;20027;-78
2023/09/10 06:45:38;;;;;;;;;;;19.60;78.30;;;;;;5039279;28;20177;-77
2023/09/10 06:48:05;;;;;;;;;;;19.60;78.40;;;;;;5041113;28;25054;-77
2023/09/10 06:50:32;;;;;;;;;;;19.60;78.40;;;;;;5021594;28;19994;-78
2023/09/10 06:53:00;;;;;;;;;;;19.60;78.50;;;;;;5019978;28;20132;-77
2023/09/10 06:55:27;;;;;;;;;;;19.60;78.60;;;;;;5037465;28;20207;-78
2023/09/10 06:57:55;;;;;;;;;;;19.60;78.70;;;;;;5040090;28;19984;-78
2023/09/10 07:00:22;;;;;;;;;;;19.60;78.80;;;;;;5028763;28;25065;-78
2023/09/10 07:02:48;;;;;;;;;;;19.60;78.90;;;;;;5034059;28;20016;-77
2023/09/10 07:05:15;;;;;;;;;;;19.60;79.00;;;;;;5014561;28;20183;-78
2023/09/10 07:07:41;;;;;;;;;;;19.50;79.00;;;;;;5030903;28;25093;-79
2023/09/10 07:10:10;;;;;;;;;;;19.60;79.20;;;;;;5032223;28;20001;-79
2023/09/10 07:12:37;;;;;;;;;;;19.50;79.20;;;;;;5034516;28;20223;-79
2023/09/10 07:15:05;;;;;;;;;;;19.50;79.30;;;;;;5033255;28;25071;-83
2023/09/10 07:17:31;;;;;;;;;;;19.50;79.40;;;;;;5011370;28;20047;-81
2023/09/10 07:19:58;;;;;;;;;;;19.50;79.50;;;;;;5031099;28;25058;-79
2023/09/10 07:22:24;;;;;;;;;;;19.50;79.50;;;;;;5033730;28;20019;-78
2023/09/10 07:24:51;;;;;;;;;;;19.50;79.50;;;;;;5031321;28;20131;-78
2023/09/10 07:27:20;;;;;;;;;;;19.50;79.60;;;;;;5019775;28;20126;-79
2023/09/10 07:29:47;;;;;;;;;;;19.50;79.60;;;;;;5013344;28;25063;-79
2023/09/10 07:32:14;;;;;;;;;;;19.50;79.70;;;;;;5027020;28;20012;-80
2023/09/10 07:34:40;;;;;;;;;;;19.60;79.90;;;;;;5031272;28;25072;-79
2023/09/10 07:37:07;;;;;;;;;;;19.60;80.00;;;;;;5033651;28;20016;-78
2023/09/10 07:39:34;;;;;;;;;;;19.60;80.10;;;;;;5015577;28;25069;-80
2023/09/10 07:42:01;;;;;;;;;;;19.60;80.00;;;;;;5042627;28;20014;-79
2023/09/10 07:44:29;;;;;;;;;;;19.60;80.10;;;;;;5050461;28;25064;-80
2023/09/10 07:46:56;;;;;;;;;;;19.60;80.20;;;;;;5052314;28;20058;-81
2023/09/10 07:49:31;;;;;;;;;;;19.60;80.20;;;;;;5059929;28;25080;-81
2023/09/10 07:52:03;;;;;;;;;;;19.60;80.20;;;;;;5050888;28;20496;-81
2023/09/10 07:54:29;;;;;;;;;;;19.60;80.20;;;;;;5053214;28;20440;-80
2023/09/10 07:56:56;;;;;;;;;;;19.60;80.20;;;;;;5052803;28;20147;-80
2023/09/10 07:59:22;;;;;;;;;;;19.60;80.10;;;;;;5058991;28;20150;-81
2023/09/10 08:01:53;;;;;;;;;;;19.70;80.00;;;;;;5055770;28;20017;-80
2023/09/10 08:04:20;;;;;;;;;;;19.70;80.00;;;;;;5060224;28;20165;-80
2023/09/10 08:06:54;;;;;;;;;;;19.70;80.00;;;;;;5052424;28;20438;-81
2023/09/10 08:09:21;;;;;;;;;;;19.70;79.90;;;;;;5052468;28;25078;-81
2023/09/10 08:11:47;;;;;;;;;;;19.70;80.60;;;;;;5054116;28;20012;-80
2023/09/10 08:14:14;;;;;;;;;;;19.70;80.30;;;;;;5055959;28;20147;-80
2023/09/10 08:16:41;;;;;;;;;;;19.80;80.30;;;;;;5053026;28;20821;-80
2023/09/10 08:19:12;;;;;;;;;;;19.80;80.20;;;;;;5055371;28;20165;-80
2023/09/10 08:21:39;;;;;;;;;;;19.80;80.60;;;;;;5053750;28;20136;-79
2023/09/10 08:24:06;;;;;;;;;;;19.90;80.50;;;;;;5051676;28;20121;-81
2023/09/10 08:26:35;;;;;;;;;;;19.90;80.40;;;;;;5057486;28;20138;-80
2023/09/10 08:29:05;;;;;;;;;;;19.90;80.20;;;;;;5049808;28;20027;-81
2023/09/10 08:31:34;;;;;;;;;;;20.00;80.80;;;;;;5055334;28;20162;-81
2023/09/10 08:34:00;;;;;;;;;;;20.00;80.70;;;;;;5049892;28;20568;-80
2023/09/10 08:36:28;;;;;;;;;;;20.10;80.60;;;;;;5051815;28;20006;-81
2023/09/10 08:38:55;;;;;;;;;;;20.10;80.50;;;;;;5052840;28;25063;-81
2023/09/10 08:41:25;;;;;;;;;;;20.20;80.80;;;;;;5038481;28;20046;-81
2023/09/10 08:43:55;;;;;;;;;;;20.20;80.60;;;;;;5054928;28;25058;-81
2023/09/10 08:46:22;;;;;;;;;;;20.30;80.40;;;;;;5057213;28;20009;-81
2023/09/10 08:48:51;;;;;;;;;;;20.30;80.00;;;;;;5056664;28;20133;-81
2023/09/10 08:51:21;;;;;;;;;;;20.40;80.10;;;;;;5055761;28;25081;-82
2023/09/10 08:53:49;;;;;;;;;;;20.40;80.00;;;;;;5047190;28;20032;-81
2023/09/10 08:56:16;;;;;;;;;;;20.50;79.60;;;;;;5060906;28;25074;-78
2023/09/10 08:58:43;;;;;;;;;;;20.60;79.40;;;;;;5060118;28;20071;-79
2023/09/10 09:01:10;;;;;;;;;;;20.60;79.00;;;;;;5050679;28;25078;-80
2023/09/10 09:03:37;;;;;;;;;;;20.60;78.90;;;;;;5053549;28;20061;-79
2023/09/10 09:06:08;;;;;;;;;;;20.70;78.80;;;;;;5057459;28;25166;-80
2023/09/10 09:08:43;;;;;;;;;;;20.80;78.60;;;;;;5058380;28;19987;-79
2023/09/10 09:11:12;;;;;;;;;;;20.80;79.00;;;;;;5053628;28;20583;-80
2023/09/10 09:13:40;;;;;;;;;;;20.80;78.50;;;;;;5052339;28;20480;-79
2023/09/10 09:16:06;;;;;;;;;;;20.90;78.00;;;;;;5052451;28;20217;-78
2023/09/10 09:18:42;;;;;;;;;;;21.00;77.80;;;;;;5050311;28;20451;-78
2023/09/10 09:21:12;;;;;;;;;;;21.10;78.10;;;;;;5052332;28;20172;-79
2023/09/10 09:23:43;;;;;;;;;;;21.10;77.60;;;;;;5051440;28;25069;-79
2023/09/10 09:26:12;;;;;;;;;;;21.20;77.40;;;;;;5054256;28;19993;-77
2023/09/10 09:28:39;;;;;;;;;;;21.30;77.20;;;;;;5052022;28;20104;-78
2023/09/10 09:31:07;;;;;;;;;;;21.30;77.10;;;;;;5047539;28;25083;-78
2023/09/10 09:33:34;;;;;;;;;;;21.40;77.20;;;;;;5055508;28;20020;-78
2023/09/10 09:36:06;;;;;;;;;;;21.40;76.90;;;;;;5054643;28;25059;-80
2023/09/10 09:38:32;;;;;;;;;;;21.50;77.00;;;;;;5052819;28;20000;-80
2023/09/10 09:41:02;;;;;;;;;;;21.60;76.90;;;;;;5053864;28;20538;-79
2023/09/10 09:43:33;;;;;;;;;;;21.60;76.70;;;;;;5032463;28;25162;-81
2023/09/10 09:46:00;;;;;;;;;;;21.70;76.50;;;;;;5008621;28;20059;-81
2023/09/10 09:48:27;;;;;;;;;;;21.70;76.20;;;;;;5018657;28;28183;-80
2023/09/10 09:50:54;;;;;;;;;;;21.80;76.20;;;;;;5023271;28;19988;-80
2023/09/10 09:53:23;;;;;;;;;;;21.90;76.00;;;;;;5034020;28;20155;-78
2023/09/10 09:55:53;;;;;;;;;;;21.90;75.70;;;;;;5030103;28;25071;-78
2023/09/10 09:58:22;;;;;;;;;;;22.00;75.60;;;;;;5028118;28;19986;-78
2023/09/10 10:00:50;;;;;;;;;;;22.00;75.40;;;;;;5011217;28;20535;-80
2023/09/10 10:03:19;;;;;;;;;;;22.10;75.20;;;;;;5026523;28;25096;-79
2023/09/10 10:05:48;;;;;;;;;;;22.20;75.10;;;;;;5031545;28;20431;-81
2023/09/10 10:08:18;;;;;;;;;;;22.30;74.80;;;;;;5035821;28;20112;-79
2023/09/10 10:10:50;;;;;;;;;;;22.30;74.60;;;;;;5034589;28;20381;-78
2023/09/10 10:13:20;;;;;;;;;;;22.40;74.40;;;;;;5031400;28;25129;-80
2023/09/10 10:15:49;;;;;;;;;;;22.50;74.20;;;;;;5027027;28;20014;-78
2023/09/10 10:18:18;;;;;;;;;;;22.60;74.00;;;;;;5033105;28;25076;-81
2023/09/10 10:20:47;;;;;;;;;;;22.70;74.00;;;;;;5030360;28;20044;-79
2023/09/10 10:23:14;;;;;;;;;;;22.70;73.80;;;;;;5030603;28;25065;-79
2023/09/10 10:25:43;;;;;;;;;;;22.70;74.10;;;;;;5032148;28;20001;-79
2023/09/10 10:28:13;;;;;;;;;;;22.80;73.30;;;;;;5030344;28;25072;-79
2023/09/10 10:30:49;;;;;;;;;;;22.90;73.20;;;;;;5014612;28;20009;-78
2023/09/10 10:33:22;;;;;;;;;;;23.00;73.00;;;;;;5018476;28;20167;-78
2023/09/10 10:35:58;;;;;;;;;;;23.00;72.80;;;;;;5030223;28;19984;-80
2023/09/10 10:38:32;;;;;;;;;;;23.10;72.50;;;;;;5031215;28;25138;-80
2023/09/10 10:41:00;;;;;;;;;;;23.20;72.40;;;;;;5029135;28;20477;-79
2023/09/10 10:43:30;;;;;;;;;;;23.30;72.20;;;;;;5032223;28;20007;-79
2023/09/10 10:45:57;;;;;;;;;;;23.40;72.20;;;;;;5014064;28;25069;-79
2023/09/10 10:48:26;;;;;;;;;;;23.40;71.90;;;;;;5030570;28;19989;-80
2023/09/10 10:50:54;;;;;;;;;;;23.50;71.80;;;;;;5013438;28;25074;-79
2023/09/10 10:53:24;;;;;;;;;;;23.60;71.70;;;;;;5013837;28;20402;-80
2023/09/10 10:55:55;;;;;;;;;;;23.70;71.50;;;;;;5034909;28;20155;-80
2023/09/10 10:58:23;;;;;;;;;;;23.70;71.30;;;;;;5034824;28;20142;-79
2023/09/10 11:00:54;;;;;;;;;;;23.80;71.10;;;;;;5031808;28;20166;-80
2023/09/10 11:03:21;;;;;;;;;;;23.90;71.00;;;;;;5017383;28;25110;-81
2023/09/10 11:06:06;;;;;;;;;;;23.90;70.80;;;;;;5036367;28;19997;-81
2023/09/10 11:08:39;;;;;;;;;;;24.00;70.70;;;;;;5032929;28;25080;-81
2023/09/10 11:11:08;;;;;;;;;;;24.10;70.50;;;;;;5030717;28;20047;-81
2023/09/10 11:13:53;;;;;;;;;;;24.10;70.30;;;;;;5031883;28;20009;-80
2023/09/10 11:16:25;;;;;;;;;;;24.20;70.10;;;;;;5030848;28;20600;-80
2023/09/10 11:18:51;;;;;;;;;;;24.30;69.90;;;;;;5032771;28;19988;-81
2023/09/10 11:21:19;;;;;;;;;;;24.40;69.10;;;;;;5032193;28;19984;-80
2023/09/10 11:24:09;;;;;;;;;;;24.50;69.40;;;;;;5033918;28;20156;-80
2023/09/10 11:26:38;;;;;;;;;;;24.50;68.40;;;;;;5034762;28;20163;-80
2023/09/10 11:29:06;;;;;;;;;;;24.70;68.80;;;;;;5034281;28;25070;-80
2023/09/10 11:31:38;;;;;;;;;;;24.70;68.60;;;;;;4999473;28;20012;-80
2023/09/10 11:34:23;;;;;;;;;;;24.80;68.30;;;;;;5033972;28;20134;-81
2023/09/10 11:36:52;;;;;;;;;;;24.90;68.20;;;;;;5017862;28;20149;-82
2023/09/10 11:39:19;;;;;;;;;;;24.90;67.90;;;;;;5039504;28;20121;-81
2023/09/10 11:41:48;;;;;;;;;;;25.00;67.60;;;;;;5026007;28;20152;-81
2023/09/10 11:44:16;;;;;;;;;;;25.10;67.50;;;;;;5052757;28;20141;-80
2023/09/10 11:46:42;;;;;;;;;;;25.10;67.10;;;;;;5050454;28;20236;-81
2023/09/10 11:49:09;;;;;;;;;;;25.20;67.00;;;;;;5050178;28;20142;-80
2023/09/10 11:51:41;;;;;;;;;;;25.30;66.70;;;;;;5051509;28;25073;-81
2023/09/10 11:54:09;;;;;;;;;;;25.40;66.50;;;;;;5072515;28;20599;-81
2023/09/10 11:56:40;;;;;;;;;;;25.40;66.30;;;;;;5058861;28;20136;-79
2023/09/10 11:59:07;;;;;;;;;;;25.50;66.10;;;;;;5051174;28;25074;-79
2023/09/10 12:01:34;;;;;;;;;;;25.60;65.90;;;;;;5048682;28;20011;-80
2023/09/10 12:04:01;;;;;;;;;;;25.60;65.60;;;;;;5052592;28;19986;-79
2023/09/10 12:06:28;;;;;;;;;;;25.70;65.20;;;;;;5052909;28;25068;-80
2023/09/10 12:08:55;;;;;;;;;;;25.70;64.90;;;;;;5049203;28;19997;-80
2023/09/10 12:11:30;;;;;;;;;;;25.80;64.40;;;;;;5056068;28;20144;-81
2023/09/10 12:13:57;;;;;;;;;;;25.80;64.40;;;;;;5051797;28;20199;-79
2023/09/10 12:16:24;;;;;;;;;;;25.90;64.50;;;;;;5051173;28;25061;-82
2023/09/10 12:18:51;;;;;;;;;;;26.00;63.40;;;;;;5046095;28;20008;-84
2023/09/10 12:21:28;;;;;;;;;;;26.00;64.10;;;;;;5054901;28;20695;-84
2023/09/10 12:23:55;;;;;;;;;;;26.10;63.10;;;;;;5046280;28;20137;-80
2023/09/10 12:26:22;;;;;;;;;;;26.20;62.50;;;;;;5053741;28;25056;-79
2023/09/10 12:28:53;;;;;;;;;;;26.20;62.40;;;;;;5051070;28;19996;-79
2023/09/10 12:31:20;;;;;;;;;;;26.30;63.50;;;;;;5053786;28;20143;-78
2023/09/10 12:33:51;;;;;;;;;;;26.30;63.00;;;;;;5047398;28;25080;-77
2023/09/10 12:36:17;;;;;;;;;;;26.40;62.80;;;;;;5060780;28;19943;-78
2023/09/10 12:38:45;;;;;;;;;;;26.50;62.30;;;;;;5054149;28;19955;-78
2023/09/10 12:41:15;;;;;;;;;;;26.50;62.40;;;;;;5053635;28;19954;-78
2023/09/10 12:43:42;;;;;;;;;;;26.60;61.20;;;;;;5050883;28;19994;-77
2023/09/10 12:46:10;;;;;;;;;;;26.70;60.70;;;;;;5051012;28;19966;-78
2023/09/10 12:48:38;;;;;;;;;;;26.70;61.30;;;;;;5050246;28;19970;-78
2023/09/10 12:51:04;;;;;;;;;;;26.70;61.40;;;;;;5048665;28;20740;-77
2023/09/10 12:53:31;;;;;;;;;;;26.80;61.10;;;;;;5046010;28;19997;-78
2023/09/10 12:55:58;;;;;;;;;;;26.90;61.10;;;;;;5055004;28;19946;-79
2023/09/10 12:58:24;;;;;;;;;;;26.90;60.90;;;;;;5059058;28;19969;-77
2023/09/10 13:00:55;;;;;;;;;;;27.00;60.40;;;;;;5056329;28;20601;-78
2023/09/10 13:03:23;;;;;;;;;;;27.00;60.40;;;;;;5055076;28;20393;-78
2023/09/10 13:05:50;;;;;;;;;;;27.10;60.40;;;;;;5052322;28;19939;-77
2023/09/10 13:08:17;;;;;;;;;;;27.20;60.00;;;;;;5054019;28;19946;-78
2023/09/10 13:10:45;;;;;;;;;;;27.20;58.80;;;;;;5053677;28;19943;-79
2023/09/10 13:13:12;;;;;;;;;;;27.20;59.00;;;;;;5059720;28;19959;-78
2023/09/10 13:15:39;;;;;;;;;;;27.30;59.40;;;;;;5057405;28;19974;-78
2023/09/10 13:18:06;;;;;;;;;;;27.30;59.50;;;;;;5054282;28;19959;-77
2023/09/10 13:20:34;;;;;;;;;;;27.40;59.40;;;;;;5047687;28;19958;-77
2023/09/10 13:23:01;;;;;;;;;;;27.40;58.00;;;;;;5064947;28;19959;-78
2023/09/10 13:25:28;;;;;;;;;;;27.50;58.20;;;;;;5047816;28;19939;-77
2023/09/10 13:27:54;;;;;;;;;;;27.50;58.00;;;;;;5051008;28;19947;-78
2023/09/10 13:30:21;;;;;;;;;;;27.50;57.80;;;;;;5058042;28;19938;-78
2023/09/10 13:32:48;;;;;;;;;;;27.60;57.00;;;;;;5059799;28;19966;-79
2023/09/10 13:35:15;;;;;;;;;;;27.60;57.90;;;;;;5057862;28;19947;-78
2023/09/10 13:37:43;;;;;;;;;;;27.70;57.60;;;;;;5058464;28;19965;-77
2023/09/10 13:40:10;;;;;;;;;;;27.70;57.90;;;;;;5047530;28;19947;-78
2023/09/10 13:42:37;;;;;;;;;;;27.80;57.20;;;;;;5035171;28;20499;-78
2023/09/10 13:45:04;;;;;;;;;;;27.80;56.20;;;;;;5030272;28;19960;-78
2023/09/10 13:47:30;;;;;;;;;;;27.90;57.10;;;;;;5030401;28;19962;-79
2023/09/10 13:49:57;;;;;;;;;;;27.90;57.70;;;;;;5030967;28;20062;-78
2023/09/10 13:52:24;;;;;;;;;;;28.00;57.70;;;;;;5011723;28;20521;-78
2023/09/10 13:54:52;;;;;;;;;;;28.00;57.20;;;;;;5034200;28;19939;-79
2023/09/10 13:57:19;;;;;;;;;;;28.10;56.90;;;;;;5031377;28;19964;-78
2023/09/10 13:59:46;;;;;;;;;;;28.10;56.60;;;;;;5013412;28;19944;-79
2023/09/10 14:02:13;;;;;;;;;;;28.20;56.70;;;;;;5012895;28;19964;-77
2023/09/10 14:04:39;;;;;;;;;;;28.20;56.60;;;;;;5034019;28;19947;-78
2023/09/10 14:07:06;;;;;;;;;;;28.30;56.50;;;;;;5033256;28;21290;-78
2023/09/10 14:09:33;;;;;;;;;;;28.30;56.20;;;;;;5014496;28;19939;-78
2023/09/10 14:12:00;;;;;;;;;;;28.40;55.00;;;;;;5032683;28;19967;-79
2023/09/10 14:14:27;;;;;;;;;;;28.40;55.20;;;;;;5034688;28;19940;-79
2023/09/10 14:16:54;;;;;;;;;;;28.40;55.40;;;;;;5011104;28;19955;-78
2023/09/10 14:19:20;;;;;;;;;;;28.50;54.80;;;;;;5033144;28;20058;-78